createdAt,value
2022-08-19T00:01:37.762Z,98138.28
2022-08-19T00:07:00.919Z,98121.16
2022-08-19T00:12:22.721Z,98129.78
2022-08-19T00:17:45.570Z,98141.09
2022-08-19T00:23:07.734Z,98129.78
2022-08-19T00:28:29.456Z,98138.94
2022-08-19T00:33:51.390Z,98128.31
2022-08-19T00:39:14.559Z,98108.84
2022-08-19T00:44:36.446Z,98104.03
2022-08-19T00:50:00.043Z,98103.22
2022-08-19T00:55:24.973Z,98118.03
2022-08-19T01:00:48.107Z,98120.75
2022-08-19T01:06:09.991Z,98127.88
2022-08-19T01:11:35.504Z,98128.06
2022-08-19T01:17:00.912Z,98118.75
2022-08-19T01:22:28.812Z,98114.94
2022-08-19T01:27:53.854Z,98119.88
2022-08-19T01:33:16.608Z,98109.75
2022-08-19T01:38:44.382Z,98106.94
2022-08-19T01:44:17.722Z,98109.59
2022-08-19T01:49:41.709Z,98114.94
2022-08-19T01:55:06.518Z,98096.44
2022-08-19T02:00:31.383Z,98110.78
2022-08-19T02:06:00.893Z,98118.28
2022-08-19T02:11:34.783Z,98116.09
2022-08-19T02:16:57.013Z,98104.78
2022-08-19T02:22:18.740Z,98103.31
2022-08-19T02:27:42.027Z,98118.31
2022-08-19T02:33:03.849Z,98122.00
2022-08-19T02:38:28.523Z,98114.03
2022-08-19T02:44:29.534Z,98113.72
2022-08-19T02:49:34.700Z,98107.59
2022-08-19T02:54:58.368Z,98103.75
2022-08-19T03:00:20.207Z,98108.75
2022-08-19T03:05:48.470Z,98095.63
2022-08-19T03:11:20.192Z,98100.44
2022-08-19T03:16:48.511Z,98113.28
2022-08-19T03:22:10.460Z,98118.41
2022-08-19T03:27:34.474Z,98123.56
2022-08-19T03:32:57.158Z,98116.09
2022-08-19T03:38:19.172Z,98123.78
2022-08-19T03:43:41.950Z,98127.78
2022-08-19T03:49:08.313Z,98117.13
2022-08-19T03:54:30.219Z,98113.13
2022-08-19T03:59:51.964Z,98122.44
2022-08-19T04:05:14.999Z,98129.09
2022-08-19T04:10:38.301Z,98131.94
2022-08-19T04:16:00.075Z,98128.97
2022-08-19T04:21:24.595Z,98129.81
2022-08-19T04:26:47.412Z,98127.00
2022-08-19T04:32:10.104Z,98130.81
2022-08-19T04:37:35.563Z,98117.69
2022-08-19T04:42:57.557Z,98128.19
2022-08-19T04:48:27.795Z,98129.50
2022-08-19T04:53:50.072Z,98130.66
2022-08-19T04:59:11.837Z,98134.28
2022-08-19T05:04:33.822Z,98139.78
2022-08-19T05:09:58.808Z,98146.94
2022-08-19T05:15:20.960Z,98154.75
2022-08-19T05:21:01.358Z,98160.72
2022-08-19T05:26:23.261Z,98188.66
2022-08-19T05:31:45.998Z,98212.91
2022-08-19T05:37:08.470Z,98225.72
2022-08-19T05:42:31.509Z,98231.34
2022-08-19T05:47:53.291Z,98232.84
2022-08-19T05:53:17.264Z,98226.53
2022-08-19T05:58:40.180Z,98228.03
2022-08-19T06:04:03.562Z,98227.19
2022-08-19T06:09:25.471Z,98226.53
2022-08-19T06:14:47.210Z,98228.88
2022-08-19T06:20:52.301Z,98227.19
2022-08-19T06:26:05.212Z,98227.19
2022-08-19T06:31:28.846Z,98222.22
2022-08-19T06:36:53.002Z,98228.22
2022-08-19T06:42:17.997Z,98230.19
2022-08-19T06:47:39.857Z,98236.00
2022-08-19T06:53:04.563Z,98227.22
2022-08-19T06:58:27.104Z,98234.00
2022-08-19T07:03:54.651Z,98234.00
2022-08-19T07:09:19.278Z,98236.31
2022-08-19T07:14:43.136Z,98246.78
2022-08-19T07:20:09.319Z,98248.97
2022-08-19T07:25:32.489Z,98252.97
2022-08-19T07:30:55.475Z,98245.81
2022-08-19T07:36:20.107Z,98248.47
2022-08-19T07:41:42.301Z,98259.41
2022-08-19T07:47:05.049Z,98248.28
2022-08-19T07:52:26.780Z,98253.63
2022-08-19T07:57:48.564Z,98260.28
2022-08-19T08:03:16.288Z,98259.41
2022-08-19T08:08:43.949Z,98257.44
2022-08-19T08:14:09.166Z,98255.75
2022-08-19T08:19:51.868Z,98265.00
2022-08-19T08:25:20.670Z,98267.50
2022-08-19T08:30:45.266Z,98277.03
2022-08-19T08:36:07.779Z,98269.25
2022-08-19T08:41:42.866Z,98273.31
2022-08-19T08:47:11.315Z,98270.31
2022-08-19T08:52:43.607Z,98273.66
2022-08-19T08:58:16.929Z,98262.00
2022-08-19T09:03:43.419Z,98271.38
2022-08-19T09:09:17.846Z,98272.72
2022-08-19T09:14:52.348Z,98270.72
2022-08-19T09:20:21.525Z,98275.34
2022-08-19T09:25:43.328Z,98280.50
2022-08-19T09:31:05.178Z,98279.53
2022-08-19T09:36:34.416Z,98275.22
2022-08-19T09:41:56.944Z,98276.88
2022-08-19T09:47:20.075Z,98279.56
2022-08-19T09:52:43.252Z,98286.53
2022-08-19T09:58:17.341Z,98282.38
2022-08-19T10:03:39.171Z,98289.22
2022-08-19T10:09:01.634Z,98282.06
2022-08-19T10:14:24.527Z,98286.72
2022-08-19T10:19:55.102Z,98281.06
2022-08-19T10:25:18.350Z,98269.13
2022-08-19T10:30:41.162Z,98276.91
2022-08-19T10:36:06.586Z,98269.44
2022-08-19T10:41:31.915Z,98264.63
2022-08-19T10:46:53.660Z,98260.47
2022-08-19T10:52:38.850Z,98260.63
2022-08-19T10:58:04.226Z,98262.28
2022-08-19T11:03:30.110Z,98258.59
2022-08-19T11:08:53.202Z,98260.09
2022-08-19T11:14:18.340Z,98258.41
2022-08-19T11:19:40.184Z,98259.72
2022-08-19T11:25:01.929Z,98249.41
2022-08-19T11:30:23.848Z,98249.75
2022-08-19T11:35:45.954Z,98254.34
2022-08-19T11:41:08.346Z,98247.19
2022-08-19T11:46:30.495Z,98250.16
2022-08-19T11:51:53.798Z,98259.66
2022-08-19T11:57:17.791Z,98252.16
2022-08-19T12:02:40.228Z,98245.31
2022-08-19T12:08:02.038Z,98250.31
2022-08-19T12:13:23.892Z,98255.28
2022-08-19T12:18:51.824Z,98248.94
2022-08-19T12:24:13.760Z,98241.84
2022-08-19T12:29:35.484Z,98236.00
2022-08-19T12:34:57.234Z,98237.72
2022-08-19T12:40:20.086Z,98242.84
2022-08-19T12:45:43.443Z,98243.03
2022-08-19T12:51:11.052Z,98241.69
2022-08-19T12:56:34.333Z,98234.16
2022-08-19T13:01:56.206Z,98242.16
2022-08-19T13:07:18.050Z,98243.97
2022-08-19T13:12:40.195Z,98253.28
2022-08-19T13:18:02.472Z,98267.78
2022-08-19T13:23:24.237Z,98255.16
2022-08-19T13:29:05.293Z,98252.88
2022-08-19T13:39:53.112Z,98252.56
2022-08-19T13:45:18.784Z,98254.06
2022-08-19T13:50:44.220Z,98262.09
2022-08-19T13:56:07.422Z,98274.41
2022-08-19T14:01:29.190Z,98266.09
2022-08-19T14:06:50.933Z,98263.47
2022-08-19T14:12:12.657Z,98267.28
2022-08-19T14:17:35.756Z,98274.41
2022-08-19T14:22:57.530Z,98266.81
2022-08-19T14:28:19.283Z,98268.59
2022-08-19T14:33:41.439Z,98263.25
2022-08-19T14:39:07.441Z,98255.16
2022-08-19T14:44:29.231Z,98255.81
2022-08-19T14:49:51.388Z,98263.75
2022-08-19T14:55:15.420Z,98257.47
2022-08-19T15:00:37.201Z,98244.50
2022-08-19T15:06:01.557Z,98247.94
2022-08-19T15:11:27.421Z,98257.44
2022-08-19T15:16:49.356Z,98251.94
2022-08-19T15:22:11.097Z,98246.22
2022-08-19T15:27:33.002Z,98247.38
2022-08-19T15:32:56.274Z,98249.03
2022-08-19T15:38:22.344Z,98241.84
2022-08-19T15:43:44.479Z,98242.00
2022-08-19T15:49:07.350Z,98244.34
2022-08-19T15:54:29.138Z,98244.31
2022-08-19T16:00:09.563Z,98255.44
2022-08-19T16:05:51.750Z,98254.94
2022-08-19T16:11:18.799Z,98255.88
2022-08-19T16:16:41.976Z,98257.06
2022-08-19T16:22:04.946Z,98262.25
2022-08-19T16:27:26.913Z,98265.44
2022-08-19T16:32:48.692Z,98275.44
2022-08-19T16:38:11.441Z,98278.47
2022-08-19T16:43:33.966Z,98271.31
2022-08-19T16:54:18.235Z,98282.84
2022-08-19T16:59:48.432Z,98290.69
2022-08-19T17:05:11.314Z,98297.19
2022-08-19T17:10:33.093Z,98302.53
2022-08-19T17:15:55.239Z,98315.84
2022-08-19T17:21:16.960Z,98317.31
2022-08-19T17:26:38.912Z,98317.97
2022-08-19T17:32:00.764Z,98320.34
2022-08-19T17:37:22.967Z,98320.16
2022-08-19T17:42:48.121Z,98327.31
2022-08-19T17:48:10.558Z,98319.53
2022-08-19T17:53:32.313Z,98321.84
2022-08-19T17:58:59.700Z,98318.50
2022-08-19T18:04:24.732Z,98331.97
2022-08-19T18:09:51.554Z,98327.00
2022-08-19T18:15:15.180Z,98333.31
2022-08-19T18:20:37.269Z,98347.41
2022-08-19T18:25:59.279Z,98343.78
2022-08-19T18:31:23.319Z,98345.72
2022-08-19T18:36:54.264Z,98341.41
2022-08-19T18:42:36.232Z,98360.19
2022-08-19T18:48:27.004Z,98357.00
2022-08-19T18:53:50.630Z,98359.16
2022-08-19T18:59:14.196Z,98369.28
2022-08-19T19:04:38.331Z,98369.09
2022-08-19T19:10:00.242Z,98370.59
2022-08-19T19:15:22.134Z,98384.03
2022-08-19T19:20:44.041Z,98378.06
2022-08-19T19:26:07.036Z,98381.72
2022-08-19T19:31:28.983Z,98389.34
2022-08-19T19:36:51.950Z,98391.19
2022-08-19T19:42:20.014Z,98385.91
2022-08-19T19:47:44.511Z,98391.41
2022-08-19T19:53:06.424Z,98401.38
2022-08-19T19:58:30.161Z,98396.06
2022-08-19T20:03:51.966Z,98397.41
2022-08-19T20:09:19.679Z,98408.53
2022-08-19T20:14:41.794Z,98408.22
2022-08-19T20:20:04.050Z,98408.06
2022-08-19T20:25:25.980Z,98419.88
2022-08-19T20:30:48.059Z,98417.06
2022-08-19T20:36:10.318Z,98417.56
2022-08-19T20:41:32.099Z,98419.22
2022-08-19T20:46:57.526Z,98419.56
2022-08-19T20:52:21.293Z,98417.03
2022-08-19T20:57:43.182Z,98418.53
2022-08-19T21:03:05.814Z,98407.41
2022-08-19T21:08:28.500Z,98419.09
2022-08-19T21:13:50.268Z,98416.47
2022-08-19T21:19:12.966Z,98415.16
2022-08-19T21:24:34.901Z,98414.16
2022-08-19T21:29:56.742Z,98417.50
2022-08-19T21:35:19.626Z,98416.66
2022-08-19T21:40:41.388Z,98417.84
2022-08-19T21:46:04.330Z,98424.47
2022-08-19T21:51:26.225Z,98425.50
2022-08-19T21:56:47.933Z,98427.47
2022-08-19T22:02:19.637Z,98426.50
2022-08-19T22:07:43.292Z,98428.97
2022-08-19T22:13:05.078Z,98434.97
2022-08-19T22:18:28.121Z,98431.13
2022-08-19T22:23:49.874Z,98431.94
2022-08-19T22:29:11.693Z,98439.78
2022-08-19T22:34:38.473Z,98441.47
2022-08-19T22:40:05.649Z,98449.25
2022-08-19T22:45:28.468Z,98454.59
2022-08-19T22:51:10.102Z,98460.75
2022-08-19T22:56:31.858Z,98457.75
2022-08-19T23:01:53.679Z,98458.78
2022-08-19T23:07:23.816Z,98466.56
2022-08-19T23:12:48.726Z,98463.09
2022-08-19T23:18:10.692Z,98467.59
2022-08-19T23:23:32.737Z,98468.44
2022-08-19T23:29:13.136Z,98468.75
2022-08-19T23:34:34.904Z,98461.59
2022-08-19T23:39:56.682Z,98466.75
2022-08-19T23:45:23.787Z,98466.59
2022-08-19T23:50:46.383Z,98476.22
2022-08-19T23:56:10.588Z,98471.25
